sensor_id;sensor_type;location;lat;lon;timestamp;P1;durP1;ratioP1;P2;durP2;ratioP2
78489;SDS011;67776;52.012;4.736;2023-10-08T00:02:04;13.25;;;3.60;;
78489;SDS011;67776;52.012;4.736;2023-10-08T00:04:31;16.48;;;3.72;;
78489;SDS011;67776;52.012;4.736;2023-10-08T00:07:02;13.50;;;3.85;;
78489;SDS011;67776;52.012;4.736;2023-10-08T00:09:29;16.02;;;4.28;;
78489;SDS011;67776;52.012;4.736;2023-10-08T00:12:00;17.67;;;3.97;;
78489;SDS011;67776;52.012;4.736;2023-10-08T00:14:26;12.00;;;3.78;;
78489;SDS011;67776;52.012;4.736;2023-10-08T00:16:53;14.38;;;4.15;;
78489;SDS011;67776;52.012;4.736;2023-10-08T00:19:18;14.13;;;4.07;;
78489;SDS011;67776;52.012;4.736;2023-10-08T00:21:44;18.08;;;4.35;;
78489;SDS011;67776;52.012;4.736;2023-10-08T00:24:10;12.87;;;3.70;;
78489;SDS011;67776;52.012;4.736;2023-10-08T00:26:39;12.02;;;4.03;;
78489;SDS011;67776;52.012;4.736;2023-10-08T00:29:08;14.27;;;4.32;;
78489;SDS011;67776;52.012;4.736;2023-10-08T00:31:47;14.23;;;4.00;;
78489;SDS011;67776;52.012;4.736;2023-10-08T00:34:18;12.60;;;3.58;;
78489;SDS011;67776;52.012;4.736;2023-10-08T00:36:45;13.43;;;3.97;;
78489;SDS011;67776;52.012;4.736;2023-10-08T00:39:14;18.25;;;4.20;;
78489;SDS011;67776;52.012;4.736;2023-10-08T00:41:47;16.50;;;4.60;;
78489;SDS011;67776;52.012;4.736;2023-10-08T00:44:14;13.80;;;3.80;;
78489;SDS011;67776;52.012;4.736;2023-10-08T00:46:54;11.35;;;3.90;;
78489;SDS011;67776;52.012;4.736;2023-10-08T00:49:26;12.83;;;4.07;;
78489;SDS011;67776;52.012;4.736;2023-10-08T00:52:12;15.20;;;4.10;;
78489;SDS011;67776;52.012;4.736;2023-10-08T00:54:39;16.23;;;4.43;;
78489;SDS011;67776;52.012;4.736;2023-10-08T00:57:32;15.98;;;3.92;;
78489;SDS011;67776;52.012;4.736;2023-10-08T01:00:03;11.35;;;3.63;;
78489;SDS011;67776;52.012;4.736;2023-10-08T01:02:31;14.33;;;4.00;;
78489;SDS011;67776;52.012;4.736;2023-10-08T01:05:12;10.70;;;3.60;;
78489;SDS011;67776;52.012;4.736;2023-10-08T01:07:45;14.45;;;4.00;;
78489;SDS011;67776;52.012;4.736;2023-10-08T01:10:13;12.85;;;4.50;;
78489;SDS011;67776;52.012;4.736;2023-10-08T01:12:44;16.92;;;3.80;;
78489;SDS011;67776;52.012;4.736;2023-10-08T01:15:20;12.87;;;3.90;;
78489;SDS011;67776;52.012;4.736;2023-10-08T01:17:52;14.15;;;3.88;;
78489;SDS011;67776;52.012;4.736;2023-10-08T01:20:23;16.27;;;4.25;;
78489;SDS011;67776;52.012;4.736;2023-10-08T01:22:58;16.75;;;4.72;;
78489;SDS011;67776;52.012;4.736;2023-10-08T01:25:34;13.48;;;4.82;;
78489;SDS011;67776;52.012;4.736;2023-10-08T01:28:00;16.07;;;4.77;;
78489;SDS011;67776;52.012;4.736;2023-10-08T01:30:26;13.60;;;4.63;;
78489;SDS011;67776;52.012;4.736;2023-10-08T01:32:59;13.38;;;4.32;;
78489;SDS011;67776;52.012;4.736;2023-10-08T01:35:27;14.37;;;4.73;;
78489;SDS011;67776;52.012;4.736;2023-10-08T01:37:52;10.38;;;3.90;;
78489;SDS011;67776;52.012;4.736;2023-10-08T01:40:21;12.03;;;4.20;;
78489;SDS011;67776;52.012;4.736;2023-10-08T01:42:49;16.00;;;4.97;;
78489;SDS011;67776;52.012;4.736;2023-10-08T01:45:16;14.23;;;4.43;;
78489;SDS011;67776;52.012;4.736;2023-10-08T01:47:43;13.93;;;4.30;;
78489;SDS011;67776;52.012;4.736;2023-10-08T01:50:08;13.90;;;4.33;;
78489;SDS011;67776;52.012;4.736;2023-10-08T01:52:46;14.93;;;4.28;;
78489;SDS011;67776;52.012;4.736;2023-10-08T01:55:12;11.82;;;4.00;;
78489;SDS011;67776;52.012;4.736;2023-10-08T01:57:42;12.43;;;4.65;;
78489;SDS011;67776;52.012;4.736;2023-10-08T02:00:08;18.60;;;4.97;;
78489;SDS011;67776;52.012;4.736;2023-10-08T02:02:34;15.65;;;4.38;;
78489;SDS011;67776;52.012;4.736;2023-10-08T02:05:00;15.05;;;4.80;;
78489;SDS011;67776;52.012;4.736;2023-10-08T02:07:26;15.07;;;4.53;;
78489;SDS011;67776;52.012;4.736;2023-10-08T02:09:53;14.48;;;4.75;;
78489;SDS011;67776;52.012;4.736;2023-10-08T02:12:19;11.87;;;4.17;;
78489;SDS011;67776;52.012;4.736;2023-10-08T02:14:44;17.47;;;4.90;;
78489;SDS011;67776;52.012;4.736;2023-10-08T02:17:09;14.33;;;4.40;;
78489;SDS011;67776;52.012;4.736;2023-10-08T02:19:35;16.85;;;4.78;;
78489;SDS011;67776;52.012;4.736;2023-10-08T02:22:02;13.95;;;4.75;;
78489;SDS011;67776;52.012;4.736;2023-10-08T02:24:30;12.83;;;4.60;;
78489;SDS011;67776;52.012;4.736;2023-10-08T02:26:56;14.27;;;4.85;;
78489;SDS011;67776;52.012;4.736;2023-10-08T02:29:26;12.50;;;4.32;;
78489;SDS011;67776;52.012;4.736;2023-10-08T02:31:53;13.00;;;4.13;;
78489;SDS011;67776;52.012;4.736;2023-10-08T02:34:19;12.68;;;4.63;;
78489;SDS011;67776;52.012;4.736;2023-10-08T02:36:45;16.02;;;4.97;;
78489;SDS011;67776;52.012;4.736;2023-10-08T02:39:12;14.43;;;4.53;;
78489;SDS011;67776;52.012;4.736;2023-10-08T02:41:42;14.68;;;4.90;;
78489;SDS011;67776;52.012;4.736;2023-10-08T02:44:10;11.77;;;4.60;;
78489;SDS011;67776;52.012;4.736;2023-10-08T02:46:38;12.70;;;4.70;;
78489;SDS011;67776;52.012;4.736;2023-10-08T02:49:06;16.23;;;4.60;;
78489;SDS011;67776;52.012;4.736;2023-10-08T02:51:35;15.40;;;4.70;;
78489;SDS011;67776;52.012;4.736;2023-10-08T02:54:01;16.23;;;4.35;;
78489;SDS011;67776;52.012;4.736;2023-10-08T02:56:30;18.70;;;4.57;;
78489;SDS011;67776;52.012;4.736;2023-10-08T02:58:57;19.00;;;5.30;;
78489;SDS011;67776;52.012;4.736;2023-10-08T03:01:23;14.82;;;4.32;;
78489;SDS011;67776;52.012;4.736;2023-10-08T03:03:48;17.27;;;4.47;;
78489;SDS011;67776;52.012;4.736;2023-10-08T03:06:13;19.10;;;4.90;;
78489;SDS011;67776;52.012;4.736;2023-10-08T03:08:39;18.13;;;5.13;;
78489;SDS011;67776;52.012;4.736;2023-10-08T03:11:08;15.82;;;5.10;;
78489;SDS011;67776;52.012;4.736;2023-10-08T03:13:45;14.85;;;4.80;;
78489;SDS011;67776;52.012;4.736;2023-10-08T03:16:14;17.98;;;4.70;;
78489;SDS011;67776;52.012;4.736;2023-10-08T03:18:40;16.83;;;4.73;;
78489;SDS011;67776;52.012;4.736;2023-10-08T03:21:08;14.93;;;4.45;;
78489;SDS011;67776;52.012;4.736;2023-10-08T03:23:54;16.58;;;4.95;;
78489;SDS011;67776;52.012;4.736;2023-10-08T03:26:23;15.65;;;4.85;;
78489;SDS011;67776;52.012;4.736;2023-10-08T03:29:03;15.18;;;4.95;;
78489;SDS011;67776;52.012;4.736;2023-10-08T03:31:34;17.67;;;4.50;;
78489;SDS011;67776;52.012;4.736;2023-10-08T03:34:11;18.25;;;4.93;;
78489;SDS011;67776;52.012;4.736;2023-10-08T03:36:40;15.07;;;4.72;;
78489;SDS011;67776;52.012;4.736;2023-10-08T03:39:09;13.73;;;4.53;;
78489;SDS011;67776;52.012;4.736;2023-10-08T03:41:39;12.70;;;4.78;;
78489;SDS011;67776;52.012;4.736;2023-10-08T03:44:07;16.70;;;4.63;;
78489;SDS011;67776;52.012;4.736;2023-10-08T03:46:42;12.40;;;4.93;;
78489;SDS011;67776;52.012;4.736;2023-10-08T03:49:11;16.85;;;4.90;;
78489;SDS011;67776;52.012;4.736;2023-10-08T03:51:50;13.63;;;4.55;;
78489;SDS011;67776;52.012;4.736;2023-10-08T03:54:19;17.77;;;4.93;;
78489;SDS011;67776;52.012;4.736;2023-10-08T03:56:52;13.67;;;4.90;;
78489;SDS011;67776;52.012;4.736;2023-10-08T03:59:17;15.53;;;4.97;;
78489;SDS011;67776;52.012;4.736;2023-10-08T04:01:59;12.60;;;4.63;;
78489;SDS011;67776;52.012;4.736;2023-10-08T04:04:48;12.27;;;4.95;;
78489;SDS011;67776;52.012;4.736;2023-10-08T04:07:20;17.47;;;4.80;;
78489;SDS011;67776;52.012;4.736;2023-10-08T04:09:53;15.98;;;5.10;;
78489;SDS011;67776;52.012;4.736;2023-10-08T04:12:34;14.23;;;5.50;;
78489;SDS011;67776;52.012;4.736;2023-10-08T04:15:01;15.73;;;5.47;;
78489;SDS011;67776;52.012;4.736;2023-10-08T04:17:32;16.03;;;4.77;;
78489;SDS011;67776;52.012;4.736;2023-10-08T04:20:08;17.13;;;5.45;;
78489;SDS011;67776;52.012;4.736;2023-10-08T04:22:55;16.50;;;5.22;;
78489;SDS011;67776;52.012;4.736;2023-10-08T04:25:20;17.70;;;5.20;;
78489;SDS011;67776;52.012;4.736;2023-10-08T04:27:46;16.83;;;5.47;;
78489;SDS011;67776;52.012;4.736;2023-10-08T04:30:14;15.68;;;5.78;;
78489;SDS011;67776;52.012;4.736;2023-10-08T04:32:40;18.38;;;5.38;;
78489;SDS011;67776;52.012;4.736;2023-10-08T04:35:06;15.95;;;5.10;;
78489;SDS011;67776;52.012;4.736;2023-10-08T04:37:33;15.03;;;5.50;;
78489;SDS011;67776;52.012;4.736;2023-10-08T04:39:59;14.95;;;5.28;;
78489;SDS011;67776;52.012;4.736;2023-10-08T04:42:24;16.57;;;5.97;;
78489;SDS011;67776;52.012;4.736;2023-10-08T04:44:52;16.50;;;5.25;;
78489;SDS011;67776;52.012;4.736;2023-10-08T04:47:19;16.05;;;6.00;;
78489;SDS011;67776;52.012;4.736;2023-10-08T04:49:56;17.50;;;5.53;;
78489;SDS011;67776;52.012;4.736;2023-10-08T04:52:22;18.02;;;6.53;;
78489;SDS011;67776;52.012;4.736;2023-10-08T04:54:50;19.13;;;7.38;;
78489;SDS011;67776;52.012;4.736;2023-10-08T04:57:19;19.13;;;6.90;;
78489;SDS011;67776;52.012;4.736;2023-10-08T04:59:50;18.98;;;7.25;;
78489;SDS011;67776;52.012;4.736;2023-10-08T05:02:16;20.67;;;6.72;;
78489;SDS011;67776;52.012;4.736;2023-10-08T05:04:47;21.08;;;6.88;;
78489;SDS011;67776;52.012;4.736;2023-10-08T05:07:17;23.23;;;7.40;;
78489;SDS011;67776;52.012;4.736;2023-10-08T05:09:46;18.02;;;6.57;;
78489;SDS011;67776;52.012;4.736;2023-10-08T05:12:34;23.52;;;6.70;;
78489;SDS011;67776;52.012;4.736;2023-10-08T05:15:08;22.05;;;6.38;;
78489;SDS011;67776;52.012;4.736;2023-10-08T05:17:44;16.98;;;5.93;;
78489;SDS011;67776;52.012;4.736;2023-10-08T05:20:21;16.93;;;5.70;;
78489;SDS011;67776;52.012;4.736;2023-10-08T05:23:24;17.05;;;4.95;;
78489;SDS011;67776;52.012;4.736;2023-10-08T05:25:50;16.48;;;4.20;;
78489;SDS011;67776;52.012;4.736;2023-10-08T05:31:19;18.30;;;4.32;;
78489;SDS011;67776;52.012;4.736;2023-10-08T05:34:01;15.40;;;4.35;;
78489;SDS011;67776;52.012;4.736;2023-10-08T05:36:41;15.85;;;4.38;;
78489;SDS011;67776;52.012;4.736;2023-10-08T05:39:35;14.00;;;3.95;;
78489;SDS011;67776;52.012;4.736;2023-10-08T05:42:04;16.37;;;3.77;;
78489;SDS011;67776;52.012;4.736;2023-10-08T05:44:38;13.18;;;3.50;;
78489;SDS011;67776;52.012;4.736;2023-10-08T05:47:14;16.60;;;4.07;;
78489;SDS011;67776;52.012;4.736;2023-10-08T05:49:58;15.88;;;4.03;;
78489;SDS011;67776;52.012;4.736;2023-10-08T05:52:45;10.63;;;3.35;;
78489;SDS011;67776;52.012;4.736;2023-10-08T05:55:18;13.33;;;3.30;;
78489;SDS011;67776;52.012;4.736;2023-10-08T05:58:00;15.57;;;3.50;;
78489;SDS011;67776;52.012;4.736;2023-10-08T06:00:38;13.10;;;3.33;;
78489;SDS011;67776;52.012;4.736;2023-10-08T06:03:18;13.85;;;3.33;;
78489;SDS011;67776;52.012;4.736;2023-10-08T06:06:20;11.88;;;2.97;;
78489;SDS011;67776;52.012;4.736;2023-10-08T06:08:45;12.43;;;3.03;;
78489;SDS011;67776;52.012;4.736;2023-10-08T06:11:29;10.90;;;3.20;;
78489;SDS011;67776;52.012;4.736;2023-10-08T06:14:09;12.83;;;3.90;;
78489;SDS011;67776;52.012;4.736;2023-10-08T06:16:39;13.00;;;3.85;;
78489;SDS011;67776;52.012;4.736;2023-10-08T06:19:15;17.20;;;3.50;;
78489;SDS011;67776;52.012;4.736;2023-10-08T06:21:41;15.68;;;3.50;;
78489;SDS011;67776;52.012;4.736;2023-10-08T06:24:08;18.20;;;4.20;;
78489;SDS011;67776;52.012;4.736;2023-10-08T06:26:37;13.20;;;3.77;;
78489;SDS011;67776;52.012;4.736;2023-10-08T06:29:13;18.70;;;4.60;;
78489;SDS011;67776;52.012;4.736;2023-10-08T06:31:59;17.98;;;4.55;;
78489;SDS011;67776;52.012;4.736;2023-10-08T06:34:30;27.40;;;5.47;;
78489;SDS011;67776;52.012;4.736;2023-10-08T06:36:56;20.80;;;4.85;;
78489;SDS011;67776;52.012;4.736;2023-10-08T06:39:23;17.83;;;4.90;;
78489;SDS011;67776;52.012;4.736;2023-10-08T06:42:12;16.88;;;4.93;;
78489;SDS011;67776;52.012;4.736;2023-10-08T06:44:39;19.65;;;4.60;;
78489;SDS011;67776;52.012;4.736;2023-10-08T06:47:08;17.38;;;3.92;;
78489;SDS011;67776;52.012;4.736;2023-10-08T06:49:34;13.48;;;4.20;;
78489;SDS011;67776;52.012;4.736;2023-10-08T06:52:01;14.93;;;3.77;;
78489;SDS011;67776;52.012;4.736;2023-10-08T06:54:27;13.80;;;3.95;;
78489;SDS011;67776;52.012;4.736;2023-10-08T06:56:55;15.10;;;3.23;;
78489;SDS011;67776;52.012;4.736;2023-10-08T06:59:21;15.45;;;4.00;;
78489;SDS011;67776;52.012;4.736;2023-10-08T07:01:48;15.95;;;2.92;;
78489;SDS011;67776;52.012;4.736;2023-10-08T07:04:16;12.07;;;3.25;;
78489;SDS011;67776;52.012;4.736;2023-10-08T07:06:43;12.83;;;3.10;;
78489;SDS011;67776;52.012;4.736;2023-10-08T07:09:11;16.63;;;3.40;;
78489;SDS011;67776;52.012;4.736;2023-10-08T07:11:57;13.38;;;2.65;;
78489;SDS011;67776;52.012;4.736;2023-10-08T07:14:23;15.98;;;3.38;;
78489;SDS011;67776;52.012;4.736;2023-10-08T07:16:53;10.68;;;3.00;;
78489;SDS011;67776;52.012;4.736;2023-10-08T07:19:20;11.67;;;3.07;;
78489;SDS011;67776;52.012;4.736;2023-10-08T07:21:48;10.23;;;2.70;;
78489;SDS011;67776;52.012;4.736;2023-10-08T07:24:19;12.32;;;3.38;;
78489;SDS011;67776;52.012;4.736;2023-10-08T07:26:46;12.07;;;3.17;;
78489;SDS011;67776;52.012;4.736;2023-10-08T07:29:14;15.93;;;3.33;;
78489;SDS011;67776;52.012;4.736;2023-10-08T07:31:44;14.00;;;3.33;;
78489;SDS011;67776;52.012;4.736;2023-10-08T07:34:14;13.40;;;3.30;;
78489;SDS011;67776;52.012;4.736;2023-10-08T07:36:41;13.18;;;3.13;;
78489;SDS011;67776;52.012;4.736;2023-10-08T07:39:08;10.88;;;2.97;;
78489;SDS011;67776;52.012;4.736;2023-10-08T07:41:45;14.68;;;3.30;;
78489;SDS011;67776;52.012;4.736;2023-10-08T07:44:12;12.70;;;3.40;;
78489;SDS011;67776;52.012;4.736;2023-10-08T07:46:37;13.32;;;3.40;;
78489;SDS011;67776;52.012;4.736;2023-10-08T07:49:03;12.63;;;2.60;;
78489;SDS011;67776;52.012;4.736;2023-10-08T07:51:29;16.00;;;3.28;;
78489;SDS011;67776;52.012;4.736;2023-10-08T07:53:54;15.90;;;3.20;;
78489;SDS011;67776;52.012;4.736;2023-10-08T07:56:21;15.90;;;3.45;;
78489;SDS011;67776;52.012;4.736;2023-10-08T07:58:47;10.23;;;2.87;;
78489;SDS011;67776;52.012;4.736;2023-10-08T08:01:13;13.43;;;3.45;;
78489;SDS011;67776;52.012;4.736;2023-10-08T08:03:39;13.18;;;3.13;;
78489;SDS011;67776;52.012;4.736;2023-10-08T08:06:06;15.43;;;3.83;;
78489;SDS011;67776;52.012;4.736;2023-10-08T08:08:32;14.77;;;3.63;;
78489;SDS011;67776;52.012;4.736;2023-10-08T08:11:00;12.45;;;3.50;;
78489;SDS011;67776;52.012;4.736;2023-10-08T08:13:37;12.40;;;3.13;;
78489;SDS011;67776;52.012;4.736;2023-10-08T08:16:03;15.63;;;3.38;;
78489;SDS011;67776;52.012;4.736;2023-10-08T08:18:42;16.88;;;2.97;;
78489;SDS011;67776;52.012;4.736;2023-10-08T08:21:11;15.30;;;3.28;;
78489;SDS011;67776;52.012;4.736;2023-10-08T08:23:45;19.00;;;3.53;;
78489;SDS011;67776;52.012;4.736;2023-10-08T08:26:21;9.73;;;2.95;;
78489;SDS011;67776;52.012;4.736;2023-10-08T08:28:58;12.90;;;4.25;;
78489;SDS011;67776;52.012;4.736;2023-10-08T08:31:26;9.68;;;3.30;;
78489;SDS011;67776;52.012;4.736;2023-10-08T08:33:56;11.60;;;2.90;;
78489;SDS011;67776;52.012;4.736;2023-10-08T08:36:25;8.53;;;2.63;;
78489;SDS011;67776;52.012;4.736;2023-10-08T08:38:52;13.85;;;2.80;;
78489;SDS011;67776;52.012;4.736;2023-10-08T08:41:18;11.07;;;2.55;;
78489;SDS011;67776;52.012;4.736;2023-10-08T08:43:54;11.30;;;2.50;;
78489;SDS011;67776;52.012;4.736;2023-10-08T08:46:32;9.35;;;2.03;;
78489;SDS011;67776;52.012;4.736;2023-10-08T08:49:01;7.95;;;1.98;;
78489;SDS011;67776;52.012;4.736;2023-10-08T08:51:32;11.93;;;2.08;;
78489;SDS011;67776;52.012;4.736;2023-10-08T08:54:00;7.40;;;1.80;;
78489;SDS011;67776;52.012;4.736;2023-10-08T08:56:31;10.37;;;1.87;;
78489;SDS011;67776;52.012;4.736;2023-10-08T08:58:58;11.55;;;2.20;;
78489;SDS011;67776;52.012;4.736;2023-10-08T09:01:25;7.97;;;1.70;;
78489;SDS011;67776;52.012;4.736;2023-10-08T09:03:50;9.37;;;1.73;;
78489;SDS011;67776;52.012;4.736;2023-10-08T09:06:15;10.13;;;2.07;;
78489;SDS011;67776;52.012;4.736;2023-10-08T09:08:41;5.97;;;1.52;;
78489;SDS011;67776;52.012;4.736;2023-10-08T09:11:07;8.60;;;1.93;;
78489;SDS011;67776;52.012;4.736;2023-10-08T09:13:33;7.68;;;2.08;;
78489;SDS011;67776;52.012;4.736;2023-10-08T09:16:12;7.63;;;1.73;;
78489;SDS011;67776;52.012;4.736;2023-10-08T09:18:43;11.90;;;2.80;;
78489;SDS011;67776;52.012;4.736;2023-10-08T09:21:11;10.95;;;2.47;;
78489;SDS011;67776;52.012;4.736;2023-10-08T09:23:42;6.88;;;2.00;;
78489;SDS011;67776;52.012;4.736;2023-10-08T09:26:09;9.60;;;2.10;;
78489;SDS011;67776;52.012;4.736;2023-10-08T09:28:35;8.63;;;2.17;;
78489;SDS011;67776;52.012;4.736;2023-10-08T09:31:04;10.75;;;2.13;;
78489;SDS011;67776;52.012;4.736;2023-10-08T09:33:31;11.70;;;2.28;;
78489;SDS011;67776;52.012;4.736;2023-10-08T09:35:58;7.53;;;1.85;;
78489;SDS011;67776;52.012;4.736;2023-10-08T09:38:28;9.75;;;2.47;;
78489;SDS011;67776;52.012;4.736;2023-10-08T09:40:55;9.20;;;2.57;;
78489;SDS011;67776;52.012;4.736;2023-10-08T09:48:25;11.03;;;2.87;;
78489;SDS011;67776;52.012;4.736;2023-10-08T10:01:07;10.77;;;2.95;;
78489;SDS011;67776;52.012;4.736;2023-10-08T10:03:33;11.30;;;2.73;;
78489;SDS011;67776;52.012;4.736;2023-10-08T10:06:01;10.80;;;3.03;;
78489;SDS011;67776;52.012;4.736;2023-10-08T10:08:27;16.73;;;2.90;;
78489;SDS011;67776;52.012;4.736;2023-10-08T10:10:58;8.20;;;2.75;;
78489;SDS011;67776;52.012;4.736;2023-10-08T10:13:27;7.78;;;2.63;;
78489;SDS011;67776;52.012;4.736;2023-10-08T10:15:57;12.55;;;2.75;;
78489;SDS011;67776;52.012;4.736;2023-10-08T10:20:57;11.80;;;2.97;;
78489;SDS011;67776;52.012;4.736;2023-10-08T10:23:38;11.55;;;3.40;;
78489;SDS011;67776;52.012;4.736;2023-10-08T10:26:05;9.15;;;2.83;;
78489;SDS011;67776;52.012;4.736;2023-10-08T10:31:43;11.73;;;2.80;;
78489;SDS011;67776;52.012;4.736;2023-10-08T10:34:11;10.13;;;3.00;;
78489;SDS011;67776;52.012;4.736;2023-10-08T10:36:38;11.88;;;3.13;;
78489;SDS011;67776;52.012;4.736;2023-10-08T10:39:05;11.98;;;3.20;;
78489;SDS011;67776;52.012;4.736;2023-10-08T10:41:51;12.68;;;3.45;;
78489;SDS011;67776;52.012;4.736;2023-10-08T10:44:26;9.40;;;2.90;;
78489;SDS011;67776;52.012;4.736;2023-10-08T10:46:55;11.30;;;2.87;;
78489;SDS011;67776;52.012;4.736;2023-10-08T10:49:40;10.07;;;3.13;;
78489;SDS011;67776;52.012;4.736;2023-10-08T10:52:25;11.05;;;2.80;;
78489;SDS011;67776;52.012;4.736;2023-10-08T10:55:01;9.48;;;3.08;;
78489;SDS011;67776;52.012;4.736;2023-10-08T10:57:55;9.23;;;2.83;;
78489;SDS011;67776;52.012;4.736;2023-10-08T11:00:25;9.13;;;2.60;;
78489;SDS011;67776;52.012;4.736;2023-10-08T11:02:57;10.38;;;2.80;;
78489;SDS011;67776;52.012;4.736;2023-10-08T11:05:35;7.95;;;2.60;;
78489;SDS011;67776;52.012;4.736;2023-10-08T11:08:07;7.85;;;2.65;;
78489;SDS011;67776;52.012;4.736;2023-10-08T11:10:34;9.30;;;2.38;;
78489;SDS011;67776;52.012;4.736;2023-10-08T11:13:06;7.17;;;2.67;;
78489;SDS011;67776;52.012;4.736;2023-10-08T11:15:39;9.48;;;2.70;;
78489;SDS011;67776;52.012;4.736;2023-10-08T11:18:12;9.45;;;2.80;;
78489;SDS011;67776;52.012;4.736;2023-10-08T11:20:40;8.18;;;2.67;;
78489;SDS011;67776;52.012;4.736;2023-10-08T11:23:09;12.80;;;3.37;;
78489;SDS011;67776;52.012;4.736;2023-10-08T11:25:53;10.82;;;3.17;;
78489;SDS011;67776;52.012;4.736;2023-10-08T11:28:32;9.15;;;2.58;;
78489;SDS011;67776;52.012;4.736;2023-10-08T11:31:00;10.93;;;3.33;;
78489;SDS011;67776;52.012;4.736;2023-10-08T11:33:33;13.00;;;3.70;;
78489;SDS011;67776;52.012;4.736;2023-10-08T11:36:01;10.50;;;3.10;;
78489;SDS011;67776;52.012;4.736;2023-10-08T11:38:37;8.05;;;3.13;;
78489;SDS011;67776;52.012;4.736;2023-10-08T11:41:12;11.82;;;3.15;;
78489;SDS011;67776;52.012;4.736;2023-10-08T11:43:51;11.38;;;3.33;;
78489;SDS011;67776;52.012;4.736;2023-10-08T11:46:27;10.63;;;3.55;;
78489;SDS011;67776;52.012;4.736;2023-10-08T11:49:13;7.70;;;2.97;;
78489;SDS011;67776;52.012;4.736;2023-10-08T11:51:50;10.07;;;3.45;;
78489;SDS011;67776;52.012;4.736;2023-10-08T11:54:17;10.43;;;3.17;;
78489;SDS011;67776;52.012;4.736;2023-10-08T11:56:45;9.88;;;3.17;;
78489;SDS011;67776;52.012;4.736;2023-10-08T11:59:10;10.83;;;4.07;;
78489;SDS011;67776;52.012;4.736;2023-10-08T12:01:37;10.20;;;3.28;;
78489;SDS011;67776;52.012;4.736;2023-10-08T12:04:07;10.25;;;3.78;;
78489;SDS011;67776;52.012;4.736;2023-10-08T12:06:46;9.30;;;3.47;;
78489;SDS011;67776;52.012;4.736;2023-10-08T12:09:15;9.70;;;3.55;;
78489;SDS011;67776;52.012;4.736;2023-10-08T12:11:41;11.70;;;3.88;;
78489;SDS011;67776;52.012;4.736;2023-10-08T12:14:07;8.95;;;3.15;;
78489;SDS011;67776;52.012;4.736;2023-10-08T12:16:33;12.20;;;3.80;;
78489;SDS011;67776;52.012;4.736;2023-10-08T12:19:01;8.18;;;3.70;;
78489;SDS011;67776;52.012;4.736;2023-10-08T12:21:28;10.23;;;3.75;;
78489;SDS011;67776;52.012;4.736;2023-10-08T12:23:59;10.02;;;3.72;;
78489;SDS011;67776;52.012;4.736;2023-10-08T12:26:30;9.60;;;3.73;;
78489;SDS011;67776;52.012;4.736;2023-10-08T12:28:56;9.57;;;3.63;;
78489;SDS011;67776;52.012;4.736;2023-10-08T12:31:22;12.30;;;3.65;;
78489;SDS011;67776;52.012;4.736;2023-10-08T12:33:50;12.32;;;4.38;;
78489;SDS011;67776;52.012;4.736;2023-10-08T12:36:19;10.82;;;4.07;;
78489;SDS011;67776;52.012;4.736;2023-10-08T12:38:48;11.37;;;4.20;;
78489;SDS011;67776;52.012;4.736;2023-10-08T12:41:14;12.88;;;4.30;;
78489;SDS011;67776;52.012;4.736;2023-10-08T12:43:43;9.80;;;4.30;;
78489;SDS011;67776;52.012;4.736;2023-10-08T12:46:17;12.35;;;4.63;;
78489;SDS011;67776;52.012;4.736;2023-10-08T12:48:43;10.20;;;4.05;;
78489;SDS011;67776;52.012;4.736;2023-10-08T12:51:18;9.95;;;4.30;;
78489;SDS011;67776;52.012;4.736;2023-10-08T12:53:48;10.80;;;4.30;;
78489;SDS011;67776;52.012;4.736;2023-10-08T12:56:24;10.10;;;3.92;;
78489;SDS011;67776;52.012;4.736;2023-10-08T12:59:03;10.98;;;3.97;;
78489;SDS011;67776;52.012;4.736;2023-10-08T13:01:36;12.38;;;5.03;;
78489;SDS011;67776;52.012;4.736;2023-10-08T13:04:06;14.98;;;5.50;;
78489;SDS011;67776;52.012;4.736;2023-10-08T13:06:40;12.87;;;4.47;;
78489;SDS011;67776;52.012;4.736;2023-10-08T13:09:10;14.48;;;4.80;;
78489;SDS011;67776;52.012;4.736;2023-10-08T13:11:37;11.43;;;4.28;;
78489;SDS011;67776;52.012;4.736;2023-10-08T13:14:04;11.43;;;4.43;;
78489;SDS011;67776;52.012;4.736;2023-10-08T13:16:29;12.87;;;5.17;;
78489;SDS011;67776;52.012;4.736;2023-10-08T13:18:56;10.70;;;4.57;;
78489;SDS011;67776;52.012;4.736;2023-10-08T13:21:23;11.35;;;5.05;;
78489;SDS011;67776;52.012;4.736;2023-10-08T13:23:50;13.35;;;4.70;;
78489;SDS011;67776;52.012;4.736;2023-10-08T13:26:16;11.65;;;4.97;;
78489;SDS011;67776;52.012;4.736;2023-10-08T13:28:42;13.20;;;5.70;;
78489;SDS011;67776;52.012;4.736;2023-10-08T13:31:08;12.93;;;5.80;;
78489;SDS011;67776;52.012;4.736;2023-10-08T13:33:40;14.38;;;6.40;;
78489;SDS011;67776;52.012;4.736;2023-10-08T13:36:08;12.60;;;6.07;;
78489;SDS011;67776;52.012;4.736;2023-10-08T13:38:34;15.70;;;6.53;;
78489;SDS011;67776;52.012;4.736;2023-10-08T13:41:03;16.38;;;6.55;;
78489;SDS011;67776;52.012;4.736;2023-10-08T13:43:34;14.38;;;5.85;;
78489;SDS011;67776;52.012;4.736;2023-10-08T13:46:01;12.10;;;5.40;;
78489;SDS011;67776;52.012;4.736;2023-10-08T13:48:33;16.45;;;5.60;;
78489;SDS011;67776;52.012;4.736;2023-10-08T13:51:01;13.73;;;5.43;;
78489;SDS011;67776;52.012;4.736;2023-10-08T13:53:28;11.80;;;4.57;;
78489;SDS011;67776;52.012;4.736;2023-10-08T13:55:58;12.65;;;4.80;;
78489;SDS011;67776;52.012;4.736;2023-10-08T13:58:29;14.70;;;5.13;;
78489;SDS011;67776;52.012;4.736;2023-10-08T14:00:56;15.05;;;5.63;;
78489;SDS011;67776;52.012;4.736;2023-10-08T14:03:24;13.70;;;5.40;;
78489;SDS011;67776;52.012;4.736;2023-10-08T14:05:50;14.93;;;5.53;;
78489;SDS011;67776;52.012;4.736;2023-10-08T14:08:19;13.55;;;4.97;;
78489;SDS011;67776;52.012;4.736;2023-10-08T14:10:45;14.15;;;4.85;;
78489;SDS011;67776;52.012;4.736;2023-10-08T14:13:13;14.98;;;5.05;;
78489;SDS011;67776;52.012;4.736;2023-10-08T14:15:39;13.98;;;4.50;;
78489;SDS011;67776;52.012;4.736;2023-10-08T14:18:09;13.37;;;4.90;;
78489;SDS011;67776;52.012;4.736;2023-10-08T14:20:36;11.07;;;4.07;;
78489;SDS011;67776;52.012;4.736;2023-10-08T14:23:05;12.98;;;4.78;;
78489;SDS011;67776;52.012;4.736;2023-10-08T14:25:31;13.70;;;4.83;;
78489;SDS011;67776;52.012;4.736;2023-10-08T14:27:58;14.30;;;4.63;;
78489;SDS011;67776;52.012;4.736;2023-10-08T14:30:30;17.13;;;4.60;;
78489;SDS011;67776;52.012;4.736;2023-10-08T14:32:58;11.75;;;4.15;;
78489;SDS011;67776;52.012;4.736;2023-10-08T14:35:23;12.10;;;3.93;;
78489;SDS011;67776;52.012;4.736;2023-10-08T14:38:07;12.63;;;3.83;;
78489;SDS011;67776;52.012;4.736;2023-10-08T14:40:51;11.02;;;3.78;;
78489;SDS011;67776;52.012;4.736;2023-10-08T14:43:35;11.93;;;3.70;;
78489;SDS011;67776;52.012;4.736;2023-10-08T14:46:02;9.52;;;3.63;;
78489;SDS011;67776;52.012;4.736;2023-10-08T14:48:31;9.98;;;3.70;;
78489;SDS011;67776;52.012;4.736;2023-10-08T14:51:00;10.65;;;3.65;;
78489;SDS011;67776;52.012;4.736;2023-10-08T14:53:27;13.25;;;3.95;;
78489;SDS011;67776;52.012;4.736;2023-10-08T14:55:53;10.50;;;4.00;;
78489;SDS011;67776;52.012;4.736;2023-10-08T14:58:19;12.32;;;3.95;;
78489;SDS011;67776;52.012;4.736;2023-10-08T15:00:44;10.50;;;3.60;;
78489;SDS011;67776;52.012;4.736;2023-10-08T15:03:10;10.80;;;3.63;;
78489;SDS011;67776;52.012;4.736;2023-10-08T15:05:37;12.23;;;3.80;;
78489;SDS011;67776;52.012;4.736;2023-10-08T15:08:05;9.40;;;3.30;;
78489;SDS011;67776;52.012;4.736;2023-10-08T15:10:34;13.83;;;4.10;;
78489;SDS011;67776;52.012;4.736;2023-10-08T15:13:00;12.00;;;3.70;;
78489;SDS011;67776;52.012;4.736;2023-10-08T15:15:26;10.80;;;3.77;;
78489;SDS011;67776;52.012;4.736;2023-10-08T15:17:56;12.20;;;4.13;;
78489;SDS011;67776;52.012;4.736;2023-10-08T15:20:22;11.50;;;3.90;;